Airport Name : Aviano AB

Other Name : Aviano AB

ICAO : LIPA

IATA : AVB

FAA :

Latitude : 46.031889

Longitude : 12.596472

Country : Italy

Local Date and Time : 19 Jul 2024 02:07

 

TAF (Terminal Aerodrome Forecast)

TAF LIPA 181700Z 1818/1903 35004KT CAVOK

 

METAR (METeorological Aerodrome Report)